MYGF METAR and TAF weather

Enter ICAO airport designator
Station Type Date Time Source
MYGF METAR 2020/01/23 00:00 UTC NOAA

MYGF 230000Z 09006KT 9999 FEW018 18/16 A2998


Station Type Date Time Source
MYGF Decoded METAR 2020/01/23 00:00 UTC NOAA

Freeport, Grand Bahama, Bahamas, The (MYGF) 26-33N 078-42W 11M
Jan 22, 2020 - 07:00 PM EST / 2020.01.23 0000 UTC
Wind: from the E (090 degrees) at 7 MPH (6 KT):0
Visibility: greater than 7 mile(s):0
Sky conditions: mostly clear
Temperature: 64 F (18 C)
Dew Point: 60 F (16 C)
Relative Humidity: 88%
Pressure (altimeter): 29.98 in. Hg (1015 hPa)
ob: MYGF 230000Z 09006KT 9999 FEW018 18/16 A2998
cycle: 0

Station Type Date Time Source
MYGF TAF 2020/01/23 06:59 UTC NOAA

TAF MYGF 230445Z 2306/2406 06012KT 9999 BKN030

Example: see airport list